Terminal Aerodrome Forecast
Issued by NWS Boston, MA

Home | Current Version | Previous Version | Text Only | Print | Product List | Glossary On
Versions: 1 2 3 4 5 6 7 8 9 10 11 12 13 14 15 16 17 18 19 20 21 22 23
000
FTUS41 KBOX 302328
TAFBDL
TAF
KBDL 302328Z 3100/0106 19012KT P6SM FEW050 BKN200
     FM310100 19008KT P6SM VCSH BKN200
     FM310400 20005KT P6SM BKN070
     FM310800 23004KT 2SM BR BKN060
     FM311100 26004KT P6SM SCT250
     FM010200 32005KT P6SM SKC=

USA.gov is the U.S. government's official web portal to all federal, state and local government web resources and services.